createdAt,value
2018-09-24T00:01:02.156Z,7.02
2018-09-24T00:03:29.432Z,6.99
2018-09-24T00:05:56.752Z,6.94
2018-09-24T00:08:24.547Z,6.91
2018-09-24T00:10:52.794Z,6.94
2018-09-24T00:13:20.589Z,6.98
2018-09-24T00:15:48.433Z,7.02
2018-09-24T00:21:12.652Z,7.10
2018-09-24T00:23:40.186Z,7.17
2018-09-24T00:26:07.658Z,7.17
2018-09-24T00:28:35.600Z,7.21
2018-09-24T00:31:02.868Z,7.24
2018-09-24T00:33:30.973Z,7.27
2018-09-24T00:35:58.317Z,7.27
2018-09-24T00:38:25.634Z,7.26
2018-09-24T00:40:52.946Z,7.16
2018-09-24T00:43:20.261Z,7.16
2018-09-24T00:45:47.559Z,7.19
2018-09-24T00:48:15.163Z,7.20
2018-09-24T00:50:42.470Z,7.18
2018-09-24T00:53:09.721Z,7.11
2018-09-24T00:55:37.024Z,7.06
2018-09-24T00:58:06.966Z,7.03
2018-09-24T01:00:34.959Z,6.97
2018-09-24T01:03:02.649Z,6.97
2018-09-24T01:05:29.977Z,6.93
2018-09-24T01:07:57.389Z,6.94
2018-09-24T01:10:24.646Z,6.92
2018-09-24T01:12:54.289Z,6.92
2018-09-24T01:15:21.850Z,6.93
2018-09-24T01:17:49.143Z,6.92
2018-09-24T01:20:16.408Z,6.92
2018-09-24T01:22:45.367Z,6.92
2018-09-24T01:25:12.780Z,6.95
2018-09-24T01:27:40.614Z,7.02
2018-09-24T01:30:08.014Z,7.06
2018-09-24T01:32:36.366Z,7.10
2018-09-24T01:35:03.736Z,7.12
2018-09-24T01:37:31.507Z,7.16
2018-09-24T01:39:58.880Z,7.23
2018-09-24T01:42:26.236Z,7.22
2018-09-24T01:44:53.489Z,7.23
2018-09-24T01:47:20.833Z,7.21
2018-09-24T01:49:48.116Z,7.26
2018-09-24T01:52:17.620Z,7.28
2018-09-24T01:54:44.913Z,7.34
2018-09-24T01:57:14.806Z,7.39
2018-09-24T01:59:47.419Z,7.44
2018-09-24T02:02:15.055Z,7.48
2018-09-24T02:04:42.590Z,7.52
2018-09-24T02:07:09.908Z,7.55
2018-09-24T02:09:37.217Z,7.56
2018-09-24T02:12:05.760Z,7.57
2018-09-24T02:14:33.072Z,7.61
2018-09-24T02:17:00.383Z,7.65
2018-09-24T02:19:27.810Z,7.71
2018-09-24T02:21:55.065Z,7.70
2018-09-24T02:24:22.355Z,7.73
2018-09-24T02:26:49.647Z,7.73
2018-09-24T02:29:17.618Z,7.71
2018-09-24T02:31:44.892Z,7.68
2018-09-24T02:34:12.470Z,7.70
2018-09-24T02:36:40.072Z,7.72
2018-09-24T02:39:08.429Z,7.69
2018-09-24T02:41:35.763Z,7.75
2018-09-24T02:44:03.028Z,7.76
2018-09-24T02:46:30.328Z,7.77
2018-09-24T02:49:01.556Z,7.75
2018-09-24T02:51:29.381Z,7.74
2018-09-24T02:53:56.618Z,7.73
2018-09-24T02:56:23.897Z,7.73
2018-09-24T02:58:51.147Z,7.76
2018-09-24T03:01:18.525Z,7.75
2018-09-24T03:03:46.046Z,7.76
2018-09-24T03:06:13.329Z,7.77
2018-09-24T03:08:40.837Z,7.77
2018-09-24T03:11:08.118Z,7.75
2018-09-24T03:13:35.701Z,7.75
2018-09-24T03:16:02.959Z,7.74
2018-09-24T03:18:30.230Z,7.76
2018-09-24T03:20:58.103Z,7.77
2018-09-24T03:23:26.397Z,7.76
2018-09-24T03:25:54.129Z,7.78
2018-09-24T03:28:21.385Z,7.75
2018-09-24T03:30:48.710Z,7.73
2018-09-24T03:33:16.077Z,7.74
2018-09-24T03:35:43.369Z,7.74
2018-09-24T03:38:10.682Z,7.73
2018-09-24T03:40:38.022Z,7.73
2018-09-24T03:43:05.951Z,7.72
2018-09-24T03:45:33.239Z,7.73
2018-09-24T03:48:00.511Z,7.72
2018-09-24T03:50:29.338Z,7.71
2018-09-24T03:52:56.634Z,7.68
2018-09-24T03:55:23.874Z,7.72
2018-09-24T03:57:52.253Z,7.74
2018-09-24T04:00:20.016Z,7.75
2018-09-24T04:02:48.221Z,7.71
2018-09-24T04:05:21.357Z,7.72
2018-09-24T04:07:54.307Z,7.70
2018-09-24T04:10:27.227Z,7.71
2018-09-24T04:13:00.216Z,7.74
2018-09-24T04:15:33.812Z,7.76
2018-09-24T04:18:06.890Z,7.76
2018-09-24T04:20:40.156Z,7.76
2018-09-24T04:23:13.181Z,7.73
2018-09-24T04:25:47.129Z,7.74
2018-09-24T04:28:20.292Z,7.76
2018-09-24T04:30:53.396Z,7.73
2018-09-24T04:33:26.501Z,7.72
2018-09-24T04:35:59.407Z,7.68
2018-09-24T04:38:32.435Z,7.62
2018-09-24T04:41:05.271Z,7.61
2018-09-24T04:43:38.373Z,7.59
2018-09-24T04:46:11.611Z,7.55
2018-09-24T04:48:45.290Z,7.53
2018-09-24T04:51:18.344Z,7.50
2018-09-24T04:53:51.936Z,7.54
2018-09-24T04:56:24.969Z,7.56
2018-09-24T04:59:02.264Z,7.58
2018-09-24T05:01:35.539Z,7.59
2018-09-24T05:04:08.637Z,7.63
2018-09-24T05:06:41.651Z,7.66
2018-09-24T05:09:14.845Z,7.64
2018-09-24T05:11:47.985Z,7.65
2018-09-24T05:14:21.534Z,7.67
2018-09-24T05:16:56.882Z,7.69
2018-09-24T05:19:33.013Z,7.72
2018-09-24T05:22:06.001Z,7.74
2018-09-24T05:24:41.324Z,7.82
2018-09-24T05:27:15.947Z,7.87
2018-09-24T05:29:48.932Z,7.90
2018-09-24T05:32:22.720Z,7.81
2018-09-24T05:34:58.299Z,7.79
2018-09-24T05:37:31.305Z,7.76
2018-09-24T05:40:05.232Z,7.74
2018-09-24T05:42:38.318Z,7.74
2018-09-24T05:45:11.992Z,7.76
2018-09-24T05:47:48.491Z,7.76
2018-09-24T05:50:21.703Z,7.71
2018-09-24T05:52:54.932Z,7.68
2018-09-24T05:55:28.178Z,7.79
2018-09-24T05:58:01.120Z,7.86
2018-09-24T06:00:34.211Z,7.83
2018-09-24T06:03:10.669Z,7.80
2018-09-24T06:05:45.741Z,7.80
2018-09-24T06:08:23.870Z,7.82
2018-09-24T06:10:58.539Z,7.80
2018-09-24T06:13:33.293Z,7.79
2018-09-24T06:16:06.706Z,7.76
2018-09-24T06:18:40.573Z,7.75
2018-09-24T06:21:16.069Z,7.77
2018-09-24T06:23:52.608Z,7.77
2018-09-24T06:26:27.367Z,7.81
2018-09-24T06:29:01.361Z,7.84
2018-09-24T06:31:34.891Z,7.89
2018-09-24T06:34:08.551Z,7.92
2018-09-24T06:36:42.177Z,8.03
2018-09-24T06:39:16.093Z,8.15
2018-09-24T06:41:49.130Z,8.19
2018-09-24T06:44:22.120Z,8.27
2018-09-24T06:46:55.230Z,8.30
2018-09-24T06:49:29.588Z,8.35
2018-09-24T06:52:02.794Z,8.37
2018-09-24T06:54:36.204Z,8.42
2018-09-24T06:57:09.365Z,8.45
2018-09-24T06:59:42.673Z,8.43
2018-09-24T07:02:15.701Z,8.49
2018-09-24T07:04:48.787Z,8.50
2018-09-24T07:07:21.933Z,8.69
2018-09-24T07:09:55.520Z,9.05
2018-09-24T07:12:28.773Z,9.26
2018-09-24T07:15:01.865Z,9.15
2018-09-24T07:17:35.415Z,9.12
2018-09-24T07:20:08.970Z,9.17
2018-09-24T07:22:42.360Z,9.40
2018-09-24T07:25:15.489Z,9.55
2018-09-24T07:27:50.345Z,10.04
2018-09-24T07:30:23.252Z,10.04
2018-09-24T07:32:56.410Z,10.44
2018-09-24T07:35:29.316Z,10.21
2018-09-24T07:40:42.244Z,9.95
2018-09-24T07:43:16.119Z,9.71
2018-09-24T07:45:53.249Z,9.52
2018-09-24T07:48:27.097Z,9.37
2018-09-24T07:51:00.430Z,9.33
2018-09-24T07:53:33.654Z,9.76
2018-09-24T07:56:07.553Z,9.73
2018-09-24T07:58:45.079Z,9.60
2018-09-24T08:01:19.512Z,9.64
2018-09-24T08:03:52.832Z,9.84
2018-09-24T08:06:27.312Z,9.82
2018-09-24T08:09:00.800Z,9.89
2018-09-24T08:11:44.768Z,9.83
2018-09-24T08:14:28.544Z,9.79
2018-09-24T08:17:12.399Z,9.81
2018-09-24T08:20:00.234Z,9.95
2018-09-24T08:22:33.182Z,9.90
2018-09-24T08:25:07.167Z,10.03
2018-09-24T08:27:41.693Z,10.06
2018-09-24T08:30:16.030Z,10.47
2018-09-24T08:32:49.285Z,10.56
2018-09-24T08:35:28.325Z,10.57
2018-09-24T08:38:01.580Z,10.39
2018-09-24T08:43:38.477Z,10.07
2018-09-24T08:46:11.455Z,9.94
2018-09-24T08:48:44.509Z,9.39
2018-09-24T08:51:17.496Z,9.21
2018-09-24T08:53:51.383Z,9.25
2018-09-24T08:56:26.596Z,9.32
2018-09-24T08:59:00.123Z,9.50
2018-09-24T09:01:33.166Z,9.86
2018-09-24T09:04:06.363Z,10.37
2018-09-24T09:06:39.606Z,10.67
2018-09-24T09:09:15.921Z,10.61
2018-09-24T09:11:49.886Z,10.74
2018-09-24T09:14:22.927Z,11.01
2018-09-24T09:17:00.598Z,10.94
2018-09-24T09:19:33.766Z,11.06
2018-09-24T09:22:13.507Z,10.92
2018-09-24T09:24:50.985Z,11.38
2018-09-24T09:27:25.585Z,11.01
2018-09-24T09:30:02.706Z,11.59
2018-09-24T09:32:35.900Z,11.68
2018-09-24T09:35:09.124Z,11.95
2018-09-24T09:37:42.185Z,11.65
2018-09-24T09:40:15.442Z,11.32
2018-09-24T09:42:51.723Z,12.12
2018-09-24T09:45:25.905Z,12.03
2018-09-24T09:48:02.193Z,11.76
2018-09-24T09:50:35.169Z,11.46
2018-09-24T09:53:10.361Z,12.10
2018-09-24T09:55:44.672Z,12.85
2018-09-24T09:58:19.490Z,13.41
2018-09-24T10:00:52.597Z,13.39
2018-09-24T10:03:26.213Z,13.00
2018-09-24T10:06:00.085Z,13.48
2018-09-24T10:08:41.402Z,13.40
2018-09-24T10:14:20.799Z,13.36
2018-09-24T10:16:55.671Z,13.15
2018-09-24T10:19:30.456Z,13.21
2018-09-24T10:22:03.568Z,13.03
2018-09-24T10:24:36.527Z,12.67
2018-09-24T10:27:09.737Z,12.33
2018-09-24T10:29:42.931Z,13.20
2018-09-24T10:32:16.257Z,13.84
2018-09-24T10:34:49.283Z,13.59
2018-09-24T10:37:22.382Z,13.22
2018-09-24T10:40:01.975Z,12.43
2018-09-24T10:42:35.192Z,11.88
2018-09-24T10:45:08.515Z,11.18
2018-09-24T10:47:41.738Z,10.66
2018-09-24T10:50:15.176Z,10.99
2018-09-24T10:52:49.015Z,11.46
2018-09-24T10:55:22.066Z,11.72
2018-09-24T10:57:55.128Z,12.10
2018-09-24T11:00:28.604Z,11.90
2018-09-24T11:03:01.521Z,11.80
2018-09-24T11:05:35.797Z,11.99
2018-09-24T11:08:09.213Z,12.35
2018-09-24T11:10:44.462Z,12.46
2018-09-24T11:13:17.622Z,12.42
2018-09-24T11:16:04.876Z,12.36
2018-09-24T11:18:38.576Z,12.13
2018-09-24T11:21:12.114Z,11.94
2018-09-24T11:23:45.668Z,12.21
2018-09-24T11:28:52.398Z,12.98
2018-09-24T11:31:25.761Z,12.65
2018-09-24T11:34:00.381Z,13.02
2018-09-24T11:36:33.783Z,13.62
2018-09-24T11:39:06.902Z,14.42
2018-09-24T11:41:40.453Z,14.81
2018-09-24T11:44:13.885Z,14.78
2018-09-24T11:46:47.176Z,14.88
2018-09-24T11:49:23.270Z,14.34
2018-09-24T11:51:57.440Z,13.78
2018-09-24T11:54:30.538Z,13.30
2018-09-24T11:57:03.630Z,13.11
2018-09-24T11:59:36.820Z,13.44
2018-09-24T12:02:10.760Z,13.98
2018-09-24T12:04:44.088Z,14.59
2018-09-24T12:07:17.123Z,14.10
2018-09-24T12:09:50.125Z,14.44
2018-09-24T12:12:23.388Z,14.92
2018-09-24T12:14:56.334Z,14.73
2018-09-24T12:17:29.449Z,14.88
2018-09-24T12:20:02.792Z,15.03
2018-09-24T12:22:35.811Z,14.85
2018-09-24T12:25:09.153Z,15.16
2018-09-24T12:27:47.612Z,15.19
2018-09-24T12:30:20.946Z,15.06
2018-09-24T12:32:54.981Z,14.44
2018-09-24T12:35:28.078Z,13.80
2018-09-24T12:38:01.105Z,14.09
2018-09-24T12:40:35.762Z,14.41
2018-09-24T12:43:08.922Z,14.55
2018-09-24T12:45:43.606Z,14.51
2018-09-24T12:48:16.764Z,14.40
2018-09-24T12:50:57.253Z,14.41
2018-09-24T12:53:30.593Z,14.15
2018-09-24T12:56:03.942Z,13.83
2018-09-24T12:58:37.064Z,13.63
2018-09-24T13:01:10.455Z,13.40
2018-09-24T13:03:43.708Z,13.42
2018-09-24T13:06:18.040Z,13.61
2018-09-24T13:08:52.215Z,13.48
2018-09-24T13:11:28.375Z,13.28
2018-09-24T13:14:01.913Z,13.44
2018-09-24T13:16:37.724Z,13.84
2018-09-24T13:19:11.264Z,14.27
2018-09-24T13:21:46.619Z,14.42
2018-09-24T13:24:19.726Z,14.18
2018-09-24T13:26:52.988Z,13.94
2018-09-24T13:29:26.781Z,14.10
2018-09-24T13:32:01.584Z,13.78
2018-09-24T13:34:35.358Z,13.78
2018-09-24T13:37:08.710Z,13.66
2018-09-24T13:39:44.057Z,13.40
2018-09-24T13:42:17.222Z,13.26
2018-09-24T13:44:50.706Z,13.37
2018-09-24T13:47:23.960Z,13.75
2018-09-24T13:49:58.477Z,13.66
2018-09-24T13:52:31.409Z,13.50
2018-09-24T13:55:04.863Z,13.54
2018-09-24T13:57:38.227Z,13.33
2018-09-24T14:00:12.308Z,13.24
2018-09-24T14:02:45.816Z,12.96
2018-09-24T14:05:19.469Z,13.00
2018-09-24T14:07:53.389Z,12.83
2018-09-24T14:10:27.252Z,12.75
2018-09-24T14:13:00.734Z,12.66
2018-09-24T14:15:34.231Z,12.53
2018-09-24T14:18:07.653Z,12.41
2018-09-24T14:20:43.948Z,12.17
2018-09-24T14:23:18.144Z,11.53
2018-09-24T14:25:55.400Z,11.23
2018-09-24T14:28:28.648Z,11.15
2018-09-24T14:31:03.575Z,11.01
2018-09-24T14:33:36.797Z,11.08
2018-09-24T14:36:12.979Z,11.03
2018-09-24T14:38:46.555Z,10.97
2018-09-24T14:41:19.840Z,10.89
2018-09-24T14:43:53.816Z,10.90
2018-09-24T14:46:27.406Z,11.09
2018-09-24T14:49:00.950Z,11.27
2018-09-24T14:51:34.564Z,11.46
2018-09-24T14:54:07.958Z,11.60
2018-09-24T14:56:41.874Z,11.61
2018-09-24T14:59:15.216Z,11.55
2018-09-24T15:01:49.250Z,11.57
2018-09-24T15:04:22.524Z,11.57
2018-09-24T15:06:56.330Z,11.46
2018-09-24T15:09:29.767Z,11.41
2018-09-24T15:12:02.864Z,11.29
2018-09-24T15:14:52.028Z,11.23
2018-09-24T15:17:36.975Z,11.05
2018-09-24T15:20:23.612Z,10.99
2018-09-24T15:23:04.393Z,10.97
2018-09-24T15:25:49.098Z,10.87
2018-09-24T15:28:22.190Z,10.72
2018-09-24T15:30:55.188Z,10.55
2018-09-24T15:33:39.723Z,10.58
2018-09-24T15:36:25.038Z,10.67
2018-09-24T15:38:58.303Z,10.66
2018-09-24T15:41:31.450Z,10.67
2018-09-24T15:44:05.809Z,10.50
2018-09-24T15:46:39.308Z,10.46
2018-09-24T15:49:12.437Z,10.46
2018-09-24T15:51:45.446Z,10.46
2018-09-24T15:54:18.494Z,10.51
2018-09-24T15:56:57.012Z,10.52
2018-09-24T15:59:30.264Z,10.60
2018-09-24T16:02:03.848Z,10.68
2018-09-24T16:04:36.888Z,10.69
2018-09-24T16:07:10.055Z,10.62
2018-09-24T16:09:44.491Z,10.61
2018-09-24T16:12:17.677Z,10.30
2018-09-24T16:14:50.987Z,9.79
2018-09-24T16:17:24.320Z,9.57
2018-09-24T16:19:57.667Z,9.45
2018-09-24T16:22:30.797Z,9.33
2018-09-24T16:25:03.780Z,9.32
2018-09-24T16:27:36.915Z,9.27
2018-09-24T16:30:15.241Z,9.23
2018-09-24T16:32:52.259Z,9.16
2018-09-24T16:35:25.951Z,9.17
2018-09-24T16:38:02.632Z,9.17
2018-09-24T16:40:37.302Z,9.15
2018-09-24T16:46:09.798Z,9.19
2018-09-24T16:48:52.122Z,9.22
2018-09-24T16:51:25.392Z,9.25
2018-09-24T16:53:58.708Z,9.29
2018-09-24T16:56:32.642Z,9.27
2018-09-24T16:59:06.997Z,9.25
2018-09-24T17:01:40.200Z,9.22
2018-09-24T17:04:13.980Z,9.25
2018-09-24T17:06:52.448Z,9.26
2018-09-24T17:33:29.304Z,8.64
2018-09-24T17:36:17.339Z,8.56
2018-09-24T17:38:50.363Z,8.50
2018-09-24T17:41:24.338Z,8.45
2018-09-24T17:43:57.328Z,8.40
2018-09-24T17:46:30.979Z,8.36
2018-09-24T17:49:03.823Z,8.37
2018-09-24T17:51:39.764Z,8.40
2018-09-24T17:54:12.735Z,8.46
2018-09-24T17:56:46.995Z,8.48
2018-09-24T17:59:19.980Z,8.53
2018-09-24T18:01:55.277Z,8.55
2018-09-24T18:04:28.920Z,8.63
2018-09-24T18:07:02.991Z,8.72
2018-09-24T18:09:38.936Z,8.77
2018-09-24T18:12:11.943Z,8.79
2018-09-24T18:14:45.906Z,8.80
2018-09-24T18:17:19.507Z,8.81
2018-09-24T18:19:52.429Z,8.85
2018-09-24T18:22:25.532Z,8.87
2018-09-24T18:24:58.472Z,8.93
2018-09-24T18:27:31.588Z,8.76
2018-09-24T18:30:06.167Z,8.66
2018-09-24T18:32:39.127Z,8.57
2018-09-24T18:35:12.246Z,8.52
2018-09-24T18:37:45.114Z,8.53
2018-09-24T18:40:18.024Z,8.48
2018-09-24T18:42:51.263Z,8.53
2018-09-24T18:45:24.904Z,8.55
2018-09-24T18:47:57.723Z,8.51
2018-09-24T18:50:30.641Z,8.39
2018-09-24T18:53:03.596Z,8.32
2018-09-24T18:55:36.647Z,8.32
2018-09-24T18:58:09.666Z,8.33
2018-09-24T19:00:42.673Z,8.34
2018-09-24T19:03:15.712Z,8.28
2018-09-24T19:08:52.397Z,8.24
2018-09-24T19:11:27.957Z,8.24
2018-09-24T19:13:58.477Z,8.24
2018-09-24T19:16:32.407Z,8.27
2018-09-24T19:19:06.568Z,8.22
2018-09-24T19:21:39.606Z,8.19
2018-09-24T19:24:12.788Z,8.20
2018-09-24T19:26:45.825Z,8.24
2018-09-24T19:29:19.864Z,8.24
2018-09-24T19:31:55.100Z,8.20
2018-09-24T19:34:33.664Z,8.22
2018-09-24T19:37:15.448Z,8.23
2018-09-24T19:39:52.958Z,8.17
2018-09-24T19:42:29.455Z,8.12
2018-09-24T19:45:07.807Z,8.12
2018-09-24T19:47:55.393Z,8.11
2018-09-24T19:50:44.783Z,8.06
2018-09-24T19:53:22.588Z,7.99
2018-09-24T19:55:58.089Z,7.91
2018-09-24T19:58:36.486Z,7.85
2018-09-24T20:01:16.241Z,7.77
2018-09-24T20:03:55.517Z,7.67
2018-09-24T20:06:32.020Z,7.61
2018-09-24T20:09:05.756Z,7.61
2018-09-24T20:11:39.118Z,7.64
2018-09-24T20:14:12.640Z,7.72
2018-09-24T20:16:45.890Z,7.78
2018-09-24T20:19:19.291Z,7.82
2018-09-24T20:21:52.608Z,7.86
2018-09-24T20:24:25.899Z,7.92
2018-09-24T20:26:59.119Z,7.95
2018-09-24T20:29:32.915Z,7.97
2018-09-24T20:32:06.221Z,8.04
2018-09-24T20:34:40.302Z,8.08
2018-09-24T20:37:13.275Z,8.09
2018-09-24T20:39:46.162Z,8.12
2018-09-24T20:42:21.395Z,8.13
2018-09-24T20:44:54.783Z,8.10
2018-09-24T20:47:28.031Z,8.04
2018-09-24T20:50:00.977Z,8.01
2018-09-24T20:52:34.272Z,7.98
2018-09-24T20:55:07.301Z,7.97
2018-09-24T20:57:41.855Z,7.95
2018-09-24T21:00:14.974Z,7.92
2018-09-24T21:02:48.812Z,7.90
2018-09-24T21:05:22.324Z,7.79
2018-09-24T21:07:55.446Z,7.65
2018-09-24T21:10:31.924Z,7.55
2018-09-24T21:13:05.132Z,7.49
2018-09-24T21:15:38.759Z,7.47
2018-09-24T21:18:12.623Z,7.43
2018-09-24T21:20:46.363Z,7.37
2018-09-24T21:23:19.507Z,7.32
2018-09-24T21:25:52.615Z,7.27
2018-09-24T21:28:26.214Z,7.24
2018-09-24T21:30:59.341Z,7.22
2018-09-24T21:33:33.170Z,7.17
2018-09-24T21:36:06.456Z,7.12
2018-09-24T21:38:40.523Z,7.04
2018-09-24T21:41:13.591Z,7.03
2018-09-24T21:43:46.992Z,6.98
2018-09-24T21:46:20.326Z,6.94
2018-09-24T21:48:53.320Z,6.93
2018-09-24T21:51:27.255Z,6.94
2018-09-24T21:54:01.069Z,6.92
2018-09-24T21:56:34.723Z,6.91
2018-09-24T21:59:07.687Z,6.87
2018-09-24T22:01:40.563Z,6.89
2018-09-24T22:04:13.610Z,6.88
2018-09-24T22:06:47.127Z,6.84
2018-09-24T22:09:20.181Z,6.82
2018-09-24T22:11:55.486Z,6.77
2018-09-24T22:14:28.415Z,6.71
2018-09-24T22:17:01.482Z,6.67
2018-09-24T22:19:34.410Z,6.66
2018-09-24T22:22:20.778Z,6.69
2018-09-24T22:24:53.806Z,6.71
2018-09-24T22:27:26.748Z,6.70
2018-09-24T22:29:59.664Z,6.67
2018-09-24T22:32:32.612Z,6.61
2018-09-24T22:35:05.604Z,6.53
2018-09-24T22:37:38.614Z,6.49
2018-09-24T22:40:11.814Z,6.42
2018-09-24T22:42:44.785Z,6.38
2018-09-24T22:45:17.737Z,6.32
2018-09-24T22:47:50.589Z,6.27
2018-09-24T22:50:23.984Z,6.28
2018-09-24T22:52:56.948Z,6.23
2018-09-24T22:55:29.952Z,6.18
2018-09-24T22:58:02.927Z,6.15
2018-09-24T23:00:36.141Z,6.15
2018-09-24T23:03:09.138Z,6.09
2018-09-24T23:05:42.129Z,6.12
2018-09-24T23:08:18.522Z,6.12
2018-09-24T23:10:52.439Z,6.08
2018-09-24T23:13:25.608Z,6.05
2018-09-24T23:15:59.612Z,6.01
2018-09-24T23:18:33.617Z,5.96
2018-09-24T23:21:06.810Z,5.90
2018-09-24T23:23:39.696Z,5.89
2018-09-24T23:26:12.989Z,5.89
2018-09-24T23:28:46.134Z,5.85
2018-09-24T23:31:20.953Z,5.81
2018-09-24T23:33:53.891Z,5.75
2018-09-24T23:36:26.825Z,5.70
2018-09-24T23:38:59.676Z,5.65
2018-09-24T23:41:32.611Z,5.63
2018-09-24T23:44:07.019Z,5.55
2018-09-24T23:46:40.134Z,5.52
2018-09-24T23:49:13.348Z,5.55
2018-09-24T23:51:46.654Z,5.59
2018-09-24T23:54:20.506Z,5.63
2018-09-24T23:56:54.392Z,5.71
2018-09-24T23:59:29.061Z,5.78
